Time;durP1;ratioP1;P1;durP2;ratioP2;P2;SDS_P1;SDS_P2;PMS_P1;PMS_P2;Temp;Humidity;BMP_temperature;BMP_pressure;BME280_temperature;BME280_humidity;BME280_pressure;Samples;Min_cycle;Max_cycle;Signal;HPM_P1;HPM_P2
2021/12/08 00:04:00;;;;;;;6.32;1.48;;;2.90;99.90;;;;;;12469339;28;20219;-86
2021/12/08 00:16:14;;;;;;;3.97;1.50;;;2.90;99.90;;;;;;12462219;28;20061;-88
2021/12/08 00:22:16;;;;;;;5.45;1.52;;;2.90;99.90;;;;;;12452299;28;20049;-88
2021/12/08 00:28:18;;;;;;;5.40;2.13;;;2.90;99.90;;;;;;12465186;28;20122;-86
2021/12/08 00:34:21;;;;;;;6.13;1.50;;;2.90;99.90;;;;;;12463510;28;20044;-90
2021/12/08 00:40:24;;;;;;;6.50;1.65;;;3.00;99.90;;;;;;12452107;28;20048;-87
2021/12/08 00:46:26;;;;;;;5.63;1.37;;;3.20;99.90;;;;;;12461466;28;20574;-89
2021/12/08 00:52:31;;;;;;;4.53;1.92;;;3.30;99.90;;;;;;12451968;28;20132;-88
2021/12/08 00:58:34;;;;;;;3.28;1.40;;;3.40;99.90;;;;;;12460256;28;20143;-88
2021/12/08 01:04:36;;;;;;;4.65;1.48;;;3.50;99.90;;;;;;12469038;28;20124;-89
2021/12/08 01:10:41;;;;;;;5.57;1.48;;;3.30;99.90;;;;;;12450464;28;20547;-88
2021/12/08 01:16:44;;;;;;;6.43;1.75;;;3.10;99.90;;;;;;12470968;28;20846;-87
2021/12/08 01:22:46;;;;;;;5.03;1.42;;;3.10;99.90;;;;;;12450971;28;20047;-88
2021/12/08 01:28:51;;;;;;;5.65;1.50;;;3.10;99.90;;;;;;12458405;28;20079;-88
2021/12/08 01:34:54;;;;;;;6.65;1.77;;;2.70;99.90;;;;;;12457546;28;20053;-89
2021/12/08 01:40:57;;;;;;;7.60;1.90;;;2.20;99.90;;;;;;12477313;28;20060;-89
2021/12/08 01:46:59;;;;;;;4.35;1.90;;;2.00;99.90;;;;;;12470127;28;20179;-91
2021/12/08 01:53:03;;;;;;;13.25;2.72;;;2.00;99.90;;;;;;12456332;28;20172;-90
2021/12/08 01:59:07;;;;;;;12.83;2.60;;;1.80;99.90;;;;;;12478588;28;20049;-88
2021/12/08 02:05:09;;;;;;;6.75;2.30;;;1.70;99.90;;;;;;12462630;28;20671;-88
2021/12/08 02:11:12;;;;;;;6.78;2.70;;;1.70;99.90;;;;;;12457262;28;20045;-88
2021/12/08 02:17:14;;;;;;;11.43;3.50;;;1.80;99.90;;;;;;12449427;28;20057;-90
2021/12/08 02:23:18;;;;;;;5.22;2.47;;;1.80;99.90;;;;;;12471512;28;20442;-90
2021/12/08 02:29:35;;;;;;;9.82;3.13;;;1.70;99.90;;;;;;12453837;28;20476;-90
2021/12/08 02:48:19;;;;;;;5.45;2.60;;;1.90;99.90;;;;;;12463943;28;20052;-88
2021/12/08 02:54:21;;;;;;;5.60;1.90;;;1.90;99.90;;;;;;12412025;28;20623;-87
2021/12/08 03:00:26;;;;;;;7.65;2.20;;;1.80;99.90;;;;;;12422970;28;20635;-88
2021/12/08 03:06:29;;;;;;;8.75;2.42;;;1.80;99.90;;;;;;12420968;28;20452;-88
2021/12/08 03:12:31;;;;;;;4.03;1.70;;;2.00;99.90;;;;;;12440668;28;20077;-89
2021/12/08 03:18:35;;;;;;;7.13;2.25;;;1.90;99.90;;;;;;12409113;28;20065;-89
2021/12/08 03:24:41;;;;;;;5.72;2.08;;;2.00;99.90;;;;;;12424803;28;20531;-88
2021/12/08 03:36:58;;;;;;;9.60;1.87;;;2.30;99.90;;;;;;12421644;28;20141;-86
2021/12/08 03:43:00;;;;;;;5.28;1.67;;;2.30;99.90;;;;;;12409395;28;20057;-88
2021/12/08 03:49:16;;;;;;;5.88;2.03;;;2.20;99.90;;;;;;12435877;28;20049;-89
2021/12/08 03:55:18;;;;;;;5.85;1.63;;;2.30;99.90;;;;;;12468678;28;20610;-90
2021/12/08 04:01:20;;;;;;;3.65;1.63;;;2.20;99.90;;;;;;12474895;28;20055;-89
2021/12/08 04:07:22;;;;;;;4.22;1.60;;;2.30;99.90;;;;;;12456253;28;21049;-88
2021/12/08 04:13:31;;;;;;;4.00;1.90;;;2.30;99.90;;;;;;12448816;28;20045;-89
2021/12/08 04:19:36;;;;;;;6.50;1.70;;;2.30;99.90;;;;;;12450168;28;20060;-89
2021/12/08 04:25:41;;;;;;;8.05;1.80;;;2.50;99.90;;;;;;12447052;28;20607;-89
2021/12/08 04:31:45;;;;;;;3.33;1.50;;;2.50;99.90;;;;;;12460250;28;20052;-88
2021/12/08 04:37:52;;;;;;;6.00;1.65;;;2.60;99.90;;;;;;12470563;28;20045;-90
2021/12/08 04:44:06;;;;;;;7.68;1.40;;;2.70;99.90;;;;;;12454743;28;21174;-90
2021/12/08 04:50:29;;;;;;;5.18;1.98;;;2.70;99.90;;;;;;12463135;28;21395;-88
2021/12/08 05:03:37;;;;;;;3.10;1.63;;;2.90;99.90;;;;;;12487056;28;20073;-88
2021/12/08 05:09:40;;;;;;;4.90;1.52;;;2.80;99.90;;;;;;12451832;28;20533;-90
2021/12/08 05:15:52;;;;;;;3.25;1.70;;;2.80;99.90;;;;;;12459121;28;20046;-89
2021/12/08 05:22:03;;;;;;;2.83;1.60;;;2.90;99.90;;;;;;12443424;28;20049;-88
2021/12/08 05:28:09;;;;;;;3.95;1.90;;;2.80;99.90;;;;;;12494197;28;20366;-90
2021/12/08 05:34:11;;;;;;;5.60;2.05;;;2.80;99.90;;;;;;12479298;28;20513;-90
2021/12/08 05:40:25;;;;;;;4.50;2.83;;;2.90;99.90;;;;;;12491686;28;20044;-90
2021/12/08 05:46:31;;;;;;;3.83;2.00;;;2.90;99.90;;;;;;12472627;28;20543;-91
2021/12/08 05:52:33;;;;;;;3.97;2.30;;;2.80;99.90;;;;;;12454499;28;20105;-88
2021/12/08 05:58:37;;;;;;;6.70;2.30;;;2.80;99.90;;;;;;12463851;28;20143;-90
2021/12/08 06:04:40;;;;;;;6.85;2.72;;;2.80;99.90;;;;;;12461172;28;20080;-90
2021/12/08 06:10:43;;;;;;;7.55;2.72;;;2.80;99.90;;;;;;12479674;28;20160;-90
2021/12/08 06:16:47;;;;;;;4.03;2.30;;;2.80;99.90;;;;;;12459823;28;20420;-91
2021/12/08 06:22:51;;;;;;;7.13;2.60;;;2.80;99.90;;;;;;12464663;28;20103;-89
2021/12/08 06:28:56;;;;;;;4.50;2.50;;;2.90;99.90;;;;;;12466921;28;20124;-91
2021/12/08 06:34:59;;;;;;;4.47;2.55;;;2.90;99.90;;;;;;12477762;28;20104;-87
2021/12/08 06:41:14;;;;;;;5.78;2.30;;;2.90;99.90;;;;;;12461993;28;20114;-88
2021/12/08 06:47:20;;;;;;;4.93;2.03;;;2.90;99.90;;;;;;12459102;28;20128;-90
2021/12/08 06:53:25;;;;;;;3.47;2.20;;;3.10;99.90;;;;;;12463874;28;20073;-90
2021/12/08 06:59:35;;;;;;;3.92;2.28;;;3.00;99.90;;;;;;12465639;28;20049;-88
2021/12/08 07:12:15;;;;;;;6.18;3.22;;;3.10;99.90;;;;;;12474916;28;20506;-90
2021/12/08 07:18:24;;;;;;;5.07;2.42;;;3.00;99.90;;;;;;12455515;28;20095;-87
2021/12/08 07:24:31;;;;;;;7.65;3.00;;;3.00;99.90;;;;;;12474684;28;20271;-91
2021/12/08 07:30:38;;;;;;;5.60;2.72;;;3.00;99.90;;;;;;12463224;28;20045;-88
2021/12/08 07:36:43;;;;;;;5.00;3.00;;;3.00;99.90;;;;;;12457554;28;20512;-90
2021/12/08 07:42:56;;;;;;;;;;;2.90;99.90;;;;;;12465172;28;20072;-89
2021/12/08 07:49:03;;;;;;;4.90;3.38;;;2.90;99.90;;;;;;12454639;28;19929;-88
2021/12/08 07:55:12;;;;;;;7.93;4.55;;;2.80;99.90;;;;;;12455545;28;20518;-88
2021/12/08 08:01:21;;;;;;;6.95;3.88;;;3.00;99.90;;;;;;12463314;28;20075;-87
2021/12/08 08:07:23;;;;;;;8.02;3.60;;;3.00;99.90;;;;;;12456419;28;20052;-87
2021/12/08 08:13:26;;;;;;;8.77;4.05;;;3.10;99.90;;;;;;12449429;28;20501;-88
2021/12/08 08:19:31;;;;;;;7.57;4.53;;;3.10;99.90;;;;;;12451419;28;20482;-89
2021/12/08 08:25:38;;;;;;;6.20;4.22;;;3.20;99.90;;;;;;12477449;28;20413;-91
2021/12/08 08:31:53;;;;;;;7.07;4.65;;;3.20;99.90;;;;;;12460858;28;20041;-89
2021/12/08 08:37:57;;;;;;;7.57;4.43;;;3.20;99.90;;;;;;12457207;28;20607;-88
2021/12/08 08:44:07;;;;;;;8.77;5.00;;;3.30;99.90;;;;;;12468276;28;20067;-88
2021/12/08 08:50:13;;;;;;;8.05;4.25;;;3.30;99.90;;;;;;12453875;28;20107;-90
2021/12/08 08:56:30;;;;;;;8.02;4.38;;;3.30;99.90;;;;;;12468600;28;20092;-89
2021/12/08 09:02:38;;;;;;;5.97;4.22;;;3.40;99.90;;;;;;12460352;28;20075;-92
2021/12/08 09:08:41;;;;;;;7.32;4.40;;;3.50;99.90;;;;;;12455471;28;20068;-87
2021/12/08 09:14:52;;;;;;;;;;;3.50;99.90;;;;;;12474199;28;20140;-87
2021/12/08 09:21:12;;;;;;;8.13;4.97;;;3.50;99.90;;;;;;12453440;28;19925;-87
2021/12/08 09:27:21;;;;;;;7.80;4.55;;;3.60;99.90;;;;;;12472299;28;20041;-90
2021/12/08 09:33:27;;;;;;;10.40;4.88;;;3.60;99.90;;;;;;12452357;28;20050;-89
2021/12/08 09:39:58;;;;;;;8.38;4.72;;;3.60;99.90;;;;;;12455809;28;20045;-89
2021/12/08 09:46:09;;;;;;;8.43;5.53;;;3.60;99.90;;;;;;12452018;28;20404;-90
2021/12/08 09:52:11;;;;;;;9.07;4.95;;;3.60;99.90;;;;;;12444310;28;20051;-92
2021/12/08 09:58:15;;;;;;;8.27;4.60;;;3.70;99.90;;;;;;12453162;28;20111;-92
2021/12/08 10:04:18;;;;;;;8.18;5.00;;;3.70;99.90;;;;;;12465295;28;20614;-88
2021/12/08 10:10:22;;;;;;;7.22;4.68;;;3.80;99.90;;;;;;12469060;28;20049;-89
2021/12/08 10:16:27;;;;;;;7.93;5.00;;;3.90;99.90;;;;;;12457917;28;20045;-89
2021/12/08 10:22:29;;;;;;;;;;;4.00;99.90;;;;;;12486138;28;20049;-91
2021/12/08 10:28:55;;;;;;;8.75;4.30;;;4.00;99.90;;;;;;12470679;28;20480;-91
2021/12/08 10:35:05;;;;;;;8.48;4.45;;;4.10;99.90;;;;;;12468135;28;20057;-88
2021/12/08 10:41:08;;;;;;;7.75;4.38;;;4.20;99.90;;;;;;12472315;28;20045;-91
2021/12/08 10:47:15;;;;;;;8.25;4.10;;;4.10;99.90;;;;;;12465930;28;20562;-91
2021/12/08 11:00:41;;;;;;;8.70;4.97;;;4.20;99.90;;;;;;12429278;28;20519;-91
2021/12/08 11:06:47;;;;;;;7.05;4.47;;;4.10;99.90;;;;;;12390175;28;20081;-91
2021/12/08 11:12:50;;;;;;;8.55;4.35;;;4.20;99.90;;;;;;12425564;28;20116;-90
2021/12/08 11:19:24;;;;;;;5.70;3.65;;;4.30;99.90;;;;;;12398269;28;20510;-87
2021/12/08 11:25:40;;;;;;;9.30;4.20;;;4.40;99.90;;;;;;12413851;28;20407;-91
2021/12/08 11:31:59;;;;;;;7.60;3.92;;;4.30;99.90;;;;;;12409755;28;20076;-91
2021/12/08 11:38:01;;;;;;;7.20;3.92;;;4.30;99.90;;;;;;12412863;28;20554;-89
2021/12/08 11:44:15;;;;;;;9.95;4.07;;;4.30;99.90;;;;;;12411084;28;20046;-89
2021/12/08 11:50:37;;;;;;;6.93;3.47;;;4.30;99.90;;;;;;12439272;28;20052;-92
2021/12/08 11:56:41;;;;;;;7.57;3.72;;;4.30;99.90;;;;;;12462029;28;20064;-90
2021/12/08 12:03:00;;;;;;;6.88;3.72;;;4.40;99.90;;;;;;12499008;28;20036;-91
2021/12/08 12:09:07;;;;;;;6.95;3.33;;;4.50;99.90;;;;;;12479333;28;20049;-90
2021/12/08 12:15:26;;;;;;;6.63;3.70;;;4.50;99.90;;;;;;12463450;28;20054;-89
2021/12/08 12:21:45;;;;;;;8.70;3.83;;;4.50;99.90;;;;;;12475418;28;20611;-92
2021/12/08 12:28:18;;;;;;;7.10;3.03;;;4.50;99.90;;;;;;12476506;28;20073;-92
2021/12/08 12:34:39;;;;;;;10.40;4.18;;;4.60;99.90;;;;;;12453517;28;20320;-92
2021/12/08 12:40:47;;;;;;;8.63;3.33;;;4.60;99.90;;;;;;12464209;28;20856;-91
2021/12/08 12:47:04;;;;;;;10.50;3.60;;;4.60;99.90;;;;;;12463649;28;20072;-92
2021/12/08 12:53:07;;;;;;;8.20;3.45;;;4.60;99.90;;;;;;12464610;28;20046;-92
2021/12/08 12:59:15;;;;;;;5.55;2.80;;;4.60;99.90;;;;;;12455760;28;20509;-91
2021/12/08 13:05:18;;;;;;;8.50;3.20;;;4.70;99.90;;;;;;12482608;28;20053;-92
2021/12/08 13:11:26;;;;;;;7.80;3.20;;;4.70;99.90;;;;;;12456279;28;20049;-92
2021/12/08 13:17:28;;;;;;;7.57;3.50;;;4.70;99.90;;;;;;12460739;28;21518;-91
2021/12/08 13:23:32;;;;;;;7.47;3.33;;;4.60;99.90;;;;;;12457204;28;20617;-90
2021/12/08 13:29:37;;;;;;;;;;;4.60;99.90;;;;;;12446674;28;20072;-92
2021/12/08 13:35:42;;;;;;;5.75;3.58;;;4.60;99.90;;;;;;12455641;28;19931;-91
2021/12/08 13:41:58;;;;;;;6.65;3.47;;;4.60;99.90;;;;;;12459550;28;20115;-92
2021/12/08 13:48:04;;;;;;;14.32;3.67;;;4.50;99.90;;;;;;12466206;28;20045;-91
2021/12/08 13:54:43;;;;;;;12.25;4.50;;;4.50;99.90;;;;;;12456808;28;20083;-90
2021/12/08 14:00:51;;;;;;;5.65;3.63;;;4.50;99.90;;;;;;12449546;28;20695;-92
2021/12/08 14:06:54;;;;;;;7.25;4.00;;;4.40;99.90;;;;;;12458252;28;20439;-91
2021/12/08 14:13:12;;;;;;;6.32;3.80;;;4.30;99.90;;;;;;12474248;28;20053;-91
2021/12/08 14:19:15;;;;;;;7.05;4.47;;;4.30;99.90;;;;;;12455325;28;20503;-90
2021/12/08 14:25:33;;;;;;;10.37;4.57;;;4.20;99.90;;;;;;12458385;28;20050;-91
2021/12/08 14:31:40;;;;;;;9.38;4.28;;;4.20;99.90;;;;;;12461959;28;20732;-91
2021/12/08 14:37:43;;;;;;;10.25;5.13;;;4.10;99.90;;;;;;12452787;28;20052;-90
2021/12/08 14:43:48;;;;;;;11.38;4.88;;;4.10;99.90;;;;;;12459170;28;20045;-91
2021/12/08 14:50:01;;;;;;;12.10;5.47;;;4.00;99.90;;;;;;12457240;28;20100;-92
2021/12/08 14:56:11;;;;;;;10.13;5.30;;;4.00;99.90;;;;;;12480382;28;20160;-91
2021/12/08 15:02:19;;;;;;;10.13;4.82;;;4.00;99.90;;;;;;12470487;28;20049;-91
2021/12/08 15:08:26;;;;;;;10.18;5.30;;;3.90;99.90;;;;;;12462079;28;20065;-91
2021/12/08 15:14:36;;;;;;;8.23;4.47;;;3.80;99.90;;;;;;12459871;28;20057;-92
2021/12/08 15:20:46;;;;;;;10.32;4.80;;;3.70;99.90;;;;;;12459107;28;20160;-90
2021/12/08 15:26:50;;;;;;;11.85;5.00;;;3.60;99.90;;;;;;12463523;28;20555;-91
2021/12/08 15:33:01;;;;;;;9.48;4.50;;;3.50;99.90;;;;;;12455398;28;20125;-91
2021/12/08 15:39:03;;;;;;;11.05;4.80;;;3.50;99.90;;;;;;12467457;28;20049;-92
2021/12/08 15:45:06;;;;;;;11.85;4.93;;;3.50;99.90;;;;;;12455335;28;20133;-92
2021/12/08 15:51:09;;;;;;;10.20;5.10;;;3.50;99.90;;;;;;12461006;28;20041;-92
2021/12/08 15:57:16;;;;;;;11.35;5.60;;;3.40;99.90;;;;;;12484604;28;20063;-92
2021/12/08 16:03:20;;;;;;;13.40;5.47;;;3.30;99.90;;;;;;12477523;28;20136;-91
2021/12/08 16:09:27;;;;;;;9.70;5.10;;;3.20;99.90;;;;;;12468578;28;20702;-91
2021/12/08 16:15:37;;;;;;;10.80;5.82;;;3.10;99.90;;;;;;12460652;28;20049;-93
2021/12/08 16:21:40;;;;;;;12.60;5.45;;;3.10;99.90;;;;;;12465796;28;20099;-92
2021/12/08 16:27:44;;;;;;;9.57;5.13;;;3.00;99.90;;;;;;12460843;28;20378;-92
2021/12/08 16:33:46;;;;;;;11.32;5.10;;;2.90;99.90;;;;;;12478927;28;20076;-91
2021/12/08 16:39:58;;;;;;;13.68;6.38;;;2.90;99.90;;;;;;12456974;28;20508;-91
2021/12/08 16:46:01;;;;;;;11.95;5.28;;;3.00;99.90;;;;;;12459462;28;20136;-91
2021/12/08 16:52:04;;;;;;;11.10;5.38;;;3.00;99.90;;;;;;12458921;28;20053;-93
2021/12/08 16:58:08;;;;;;;10.25;5.75;;;2.90;99.90;;;;;;12463827;28;20083;-91
2021/12/08 17:04:10;;;;;;;9.80;6.10;;;3.00;99.90;;;;;;12456942;28;20037;-91
2021/12/08 17:10:14;;;;;;;13.68;5.47;;;3.10;99.90;;;;;;12458909;28;20330;-92
2021/12/08 17:16:18;;;;;;;11.52;5.18;;;3.10;99.90;;;;;;12453786;28;20611;-91
2021/12/08 17:22:20;;;;;;;11.50;5.50;;;3.10;99.90;;;;;;12487287;28;20053;-92
2021/12/08 17:28:28;;;;;;;11.80;5.70;;;3.10;99.90;;;;;;12485598;28;20139;-93
2021/12/08 17:34:30;;;;;;;12.00;5.05;;;3.20;99.90;;;;;;12453645;28;20330;-91
2021/12/08 17:40:32;;;;;;;16.90;5.57;;;3.10;99.90;;;;;;12453347;28;20137;-94
2021/12/08 17:46:35;;;;;;;13.23;5.18;;;3.20;99.90;;;;;;12456582;28;20037;-93
2021/12/08 17:52:38;;;;;;;12.13;4.70;;;3.10;99.90;;;;;;12421290;28;20125;-91
2021/12/08 17:58:42;;;;;;;8.85;4.80;;;3.00;99.90;;;;;;12433205;28;20781;-93
2021/12/08 18:04:59;;;;;;;11.10;4.53;;;3.00;99.90;;;;;;12427595;28;20096;-93
2021/12/08 18:11:05;;;;;;;10.40;4.60;;;3.00;99.90;;;;;;12420563;28;20049;-92
2021/12/08 18:17:08;;;;;;;10.30;5.00;;;3.00;99.90;;;;;;12417715;28;20414;-91
2021/12/08 18:23:10;;;;;;;12.23;5.15;;;3.00;99.90;;;;;;12425950;28;20501;-92
2021/12/08 18:29:14;;;;;;;12.07;5.32;;;2.90;99.90;;;;;;12424588;28;20486;-91
2021/12/08 18:35:51;;;;;;;12.60;4.87;;;2.80;99.90;;;;;;12425911;28;20054;-91
2021/12/08 18:41:55;;;;;;;14.20;4.82;;;3.00;99.90;;;;;;12425210;28;20307;-92
2021/12/08 18:47:57;;;;;;;9.15;4.65;;;3.00;99.90;;;;;;12438383;28;20065;-91
2021/12/08 18:54:02;;;;;;;15.85;5.38;;;3.10;99.90;;;;;;12463281;28;20401;-91
2021/12/08 19:00:12;;;;;;;10.45;4.05;;;2.90;99.90;;;;;;12467716;28;20053;-92
2021/12/08 19:06:14;;;;;;;11.50;4.70;;;2.80;99.90;;;;;;12480096;28;20053;-91
2021/12/08 19:12:17;;;;;;;13.65;4.75;;;2.70;99.90;;;;;;12469812;28;20131;-91
2021/12/08 19:18:20;;;;;;;10.60;4.78;;;2.60;99.90;;;;;;12480974;28;20461;-93
2021/12/08 19:24:23;;;;;;;11.07;5.00;;;2.50;99.90;;;;;;12458180;28;20045;-91
2021/12/08 19:30:26;;;;;;;13.18;5.43;;;2.60;99.90;;;;;;12458833;28;20047;-93
2021/12/08 19:36:29;;;;;;;12.95;5.32;;;2.80;99.90;;;;;;12457459;28;20049;-92
2021/12/08 19:42:31;;;;;;;12.77;5.57;;;2.90;99.90;;;;;;12458335;28;20417;-92
2021/12/08 19:48:35;;;;;;;13.65;5.65;;;2.90;99.90;;;;;;12460753;28;20073;-92
2021/12/08 19:54:40;;;;;;;10.68;5.80;;;2.80;99.90;;;;;;12461258;28;20053;-92
2021/12/08 20:00:43;;;;;;;15.75;5.78;;;2.70;99.90;;;;;;12459041;28;20509;-93
2021/12/08 20:06:45;;;;;;;13.13;6.22;;;2.80;99.90;;;;;;12456453;28;20033;-91
2021/12/08 20:12:52;;;;;;;12.73;6.50;;;2.80;99.90;;;;;;12464401;28;20486;-93
2021/12/08 20:18:55;;;;;;;14.03;7.07;;;2.70;99.90;;;;;;12464401;28;20068;-92
2021/12/08 20:25:00;;;;;;;16.10;7.43;;;2.70;99.90;;;;;;12460230;28;20049;-92
2021/12/08 20:31:03;;;;;;;16.63;7.70;;;2.70;99.90;;;;;;12457732;28;20774;-92
2021/12/08 20:37:05;;;;;;;12.02;7.03;;;2.60;99.90;;;;;;12457055;28;20053;-91
2021/12/08 20:43:08;;;;;;;15.70;7.45;;;2.70;99.90;;;;;;12451474;28;20052;-92
2021/12/08 20:49:11;;;;;;;13.48;7.35;;;2.80;99.90;;;;;;12458655;28;20057;-92
2021/12/08 20:55:13;;;;;;;17.10;7.10;;;2.80;99.90;;;;;;12453306;28;20107;-93
2021/12/08 21:01:23;;;;;;;13.70;6.70;;;2.70;99.90;;;;;;12471766;28;20045;-92
2021/12/08 21:07:26;;;;;;;13.55;7.30;;;2.70;99.90;;;;;;12469607;28;20049;-92
2021/12/08 21:13:29;;;;;;;12.18;7.10;;;2.70;99.90;;;;;;12454069;28;20053;-93
2021/12/08 21:19:32;;;;;;;15.45;7.18;;;2.70;99.90;;;;;;12464672;28;20107;-92
2021/12/08 21:25:35;;;;;;;14.07;7.03;;;2.70;99.90;;;;;;12463443;28;20109;-92
2021/12/08 21:31:38;;;;;;;16.25;7.28;;;2.60;99.90;;;;;;12468180;28;20151;-93
2021/12/08 21:37:40;;;;;;;15.18;7.90;;;2.80;99.90;;;;;;12466143;28;20320;-93
2021/12/08 21:43:48;;;;;;;15.70;8.68;;;2.80;99.90;;;;;;12461199;28;20056;-92
2021/12/08 21:49:50;;;;;;;17.38;7.75;;;2.60;99.90;;;;;;12456687;28;20064;-93
2021/12/08 21:55:53;;;;;;;16.40;7.53;;;2.60;99.90;;;;;;12474205;28;20486;-92
2021/12/08 22:01:55;;;;;;;14.38;7.10;;;2.80;99.90;;;;;;12464226;28;20076;-92
2021/12/08 22:07:57;;;;;;;16.25;7.88;;;2.80;99.90;;;;;;12462877;28;20060;-92
2021/12/08 22:14:00;;;;;;;14.63;9.20;;;3.00;99.90;;;;;;12474556;28;20084;-93
2021/12/08 22:20:05;;;;;;;19.55;9.38;;;3.10;99.90;;;;;;12464889;28;20064;-92
2021/12/08 22:26:07;;;;;;;17.33;9.07;;;3.00;99.90;;;;;;12468946;28;20532;-93
2021/12/08 22:32:09;;;;;;;20.50;8.90;;;2.90;99.90;;;;;;12472663;28;20041;-92
2021/12/08 22:38:11;;;;;;;13.68;8.50;;;2.80;99.90;;;;;;12475360;28;20085;-92
2021/12/08 22:44:14;;;;;;;18.50;9.10;;;2.80;99.90;;;;;;12479903;28;20298;-93
2021/12/08 22:50:21;;;;;;;14.68;8.70;;;2.70;99.90;;;;;;12489207;28;20629;-92
2021/12/08 22:56:24;;;;;;;14.52;9.43;;;2.70;99.90;;;;;;12496100;28;20056;-93
2021/12/08 23:02:26;;;;;;;18.65;10.27;;;2.60;99.90;;;;;;12469082;28;20413;-92
2021/12/08 23:08:28;;;;;;;15.02;9.43;;;2.60;99.90;;;;;;12481414;28;20493;-92
2021/12/08 23:14:31;;;;;;;18.33;9.23;;;2.70;99.90;;;;;;12491592;28;20046;-92
2021/12/08 23:20:36;;;;;;;22.10;10.10;;;2.60;99.90;;;;;;12482003;28;20045;-91
2021/12/08 23:26:38;;;;;;;19.58;9.88;;;2.50;99.90;;;;;;12503177;28;20210;-93
2021/12/08 23:32:41;;;;;;;20.10;10.35;;;2.50;99.90;;;;;;12466622;28;20037;-91
2021/12/08 23:44:47;;;;;;;16.92;9.85;;;2.70;99.90;;;;;;12483025;28;20092;-92
2021/12/08 23:50:49;;;;;;;19.35;9.95;;;2.60;99.90;;;;;;12479579;28;20096;-92
2021/12/08 23:56:53;;;;;;;20.15;10.10;;;2.60;99.90;;;;;;12459117;28;20635;-92
